sensor_id;sensor_type;location;lat;lon;timestamp;P1;durP1;ratioP1;P2;durP2;ratioP2
83552;SDS011;73510;50.866;5.420;2024-02-16T00:00:08;3.83;;;2.58;;
83552;SDS011;73510;50.866;5.420;2024-02-16T00:02:36;4.72;;;1.90;;
83552;SDS011;73510;50.866;5.420;2024-02-16T00:05:02;3.15;;;2.25;;
83552;SDS011;73510;50.866;5.420;2024-02-16T00:07:30;5.35;;;2.30;;
83552;SDS011;73510;50.866;5.420;2024-02-16T00:09:55;5.57;;;3.35;;
83552;SDS011;73510;50.866;5.420;2024-02-16T00:12:21;4.13;;;2.20;;
83552;SDS011;73510;50.866;5.420;2024-02-16T00:14:48;4.47;;;2.58;;
83552;SDS011;73510;50.866;5.420;2024-02-16T00:17:13;3.92;;;2.25;;
83552;SDS011;73510;50.866;5.420;2024-02-16T00:19:39;5.30;;;2.05;;
83552;SDS011;73510;50.866;5.420;2024-02-16T00:22:05;2.67;;;1.55;;
83552;SDS011;73510;50.866;5.420;2024-02-16T00:24:34;2.63;;;1.50;;
83552;SDS011;73510;50.866;5.420;2024-02-16T00:27:01;2.90;;;1.30;;
83552;SDS011;73510;50.866;5.420;2024-02-16T00:29:30;3.78;;;1.63;;
83552;SDS011;73510;50.866;5.420;2024-02-16T00:31:57;4.30;;;1.48;;
83552;SDS011;73510;50.866;5.420;2024-02-16T00:34:24;3.72;;;1.95;;
83552;SDS011;73510;50.866;5.420;2024-02-16T00:36:50;4.10;;;1.58;;
83552;SDS011;73510;50.866;5.420;2024-02-16T00:39:17;3.45;;;2.05;;
83552;SDS011;73510;50.866;5.420;2024-02-16T00:41:43;3.40;;;1.75;;
83552;SDS011;73510;50.866;5.420;2024-02-16T00:44:11;5.90;;;1.60;;
83552;SDS011;73510;50.866;5.420;2024-02-16T00:46:36;3.25;;;1.75;;
83552;SDS011;73510;50.866;5.420;2024-02-16T00:49:02;3.08;;;1.40;;
83552;SDS011;73510;50.866;5.420;2024-02-16T00:51:28;3.47;;;1.75;;
83552;SDS011;73510;50.866;5.420;2024-02-16T00:53:54;3.10;;;1.73;;
83552;SDS011;73510;50.866;5.420;2024-02-16T00:56:20;2.83;;;1.73;;
83552;SDS011;73510;50.866;5.420;2024-02-16T00:58:46;2.28;;;1.50;;
83552;SDS011;73510;50.866;5.420;2024-02-16T01:01:12;4.20;;;1.80;;
83552;SDS011;73510;50.866;5.420;2024-02-16T01:03:39;3.05;;;1.90;;
83552;SDS011;73510;50.866;5.420;2024-02-16T01:06:05;3.42;;;1.70;;
83552;SDS011;73510;50.866;5.420;2024-02-16T01:08:31;3.85;;;1.70;;
83552;SDS011;73510;50.866;5.420;2024-02-16T01:10:57;4.15;;;1.80;;
83552;SDS011;73510;50.866;5.420;2024-02-16T01:13:23;2.80;;;1.95;;
83552;SDS011;73510;50.866;5.420;2024-02-16T01:15:49;2.80;;;1.70;;
83552;SDS011;73510;50.866;5.420;2024-02-16T01:18:15;2.63;;;1.80;;
83552;SDS011;73510;50.866;5.420;2024-02-16T01:20:41;4.60;;;1.70;;
83552;SDS011;73510;50.866;5.420;2024-02-16T01:23:07;3.38;;;1.85;;
83552;SDS011;73510;50.866;5.420;2024-02-16T01:25:32;3.80;;;2.00;;
83552;SDS011;73510;50.866;5.420;2024-02-16T01:27:58;3.47;;;1.92;;
83552;SDS011;73510;50.866;5.420;2024-02-16T01:30:24;4.47;;;1.80;;
83552;SDS011;73510;50.866;5.420;2024-02-16T01:32:50;2.88;;;2.10;;
83552;SDS011;73510;50.866;5.420;2024-02-16T01:35:16;2.40;;;1.67;;
83552;SDS011;73510;50.866;5.420;2024-02-16T01:37:42;4.68;;;1.88;;
83552;SDS011;73510;50.866;5.420;2024-02-16T01:40:08;3.90;;;1.52;;
83552;SDS011;73510;50.866;5.420;2024-02-16T01:42:39;3.95;;;1.90;;
83552;SDS011;73510;50.866;5.420;2024-02-16T01:45:06;4.03;;;1.80;;
83552;SDS011;73510;50.866;5.420;2024-02-16T01:47:33;3.53;;;1.98;;
83552;SDS011;73510;50.866;5.420;2024-02-16T01:50:00;4.38;;;1.85;;
83552;SDS011;73510;50.866;5.420;2024-02-16T01:52:27;4.22;;;2.40;;
83552;SDS011;73510;50.866;5.420;2024-02-16T01:54:53;3.28;;;1.90;;
83552;SDS011;73510;50.866;5.420;2024-02-16T01:57:19;5.15;;;2.03;;
83552;SDS011;73510;50.866;5.420;2024-02-16T01:59:45;2.50;;;1.77;;
83552;SDS011;73510;50.866;5.420;2024-02-16T02:02:11;3.22;;;1.52;;
83552;SDS011;73510;50.866;5.420;2024-02-16T02:04:37;3.05;;;1.90;;
83552;SDS011;73510;50.866;5.420;2024-02-16T02:07:15;4.32;;;2.20;;
83552;SDS011;73510;50.866;5.420;2024-02-16T02:09:41;4.03;;;1.85;;
83552;SDS011;73510;50.866;5.420;2024-02-16T02:12:10;4.47;;;1.80;;
83552;SDS011;73510;50.866;5.420;2024-02-16T02:14:36;3.92;;;1.98;;
83552;SDS011;73510;50.866;5.420;2024-02-16T02:17:02;5.07;;;1.73;;
83552;SDS011;73510;50.866;5.420;2024-02-16T02:19:31;3.70;;;1.73;;
83552;SDS011;73510;50.866;5.420;2024-02-16T02:21:57;4.50;;;1.90;;
83552;SDS011;73510;50.866;5.420;2024-02-16T02:24:23;4.45;;;1.98;;
83552;SDS011;73510;50.866;5.420;2024-02-16T02:26:48;2.05;;;1.60;;
83552;SDS011;73510;50.866;5.420;2024-02-16T02:29:14;5.72;;;2.28;;
83552;SDS011;73510;50.866;5.420;2024-02-16T02:31:40;3.15;;;1.60;;
83552;SDS011;73510;50.866;5.420;2024-02-16T02:34:05;2.60;;;1.60;;
83552;SDS011;73510;50.866;5.420;2024-02-16T02:36:31;3.40;;;1.63;;
83552;SDS011;73510;50.866;5.420;2024-02-16T02:39:00;3.92;;;1.52;;
83552;SDS011;73510;50.866;5.420;2024-02-16T02:41:26;2.45;;;1.98;;
83552;SDS011;73510;50.866;5.420;2024-02-16T02:43:52;4.45;;;1.35;;
83552;SDS011;73510;50.866;5.420;2024-02-16T02:46:18;3.22;;;1.95;;
83552;SDS011;73510;50.866;5.420;2024-02-16T02:48:44;3.33;;;1.58;;
83552;SDS011;73510;50.866;5.420;2024-02-16T02:51:10;3.95;;;1.80;;
83552;SDS011;73510;50.866;5.420;2024-02-16T02:53:36;6.85;;;2.47;;
83552;SDS011;73510;50.866;5.420;2024-02-16T02:56:02;2.50;;;1.65;;
83552;SDS011;73510;50.866;5.420;2024-02-16T02:58:29;3.20;;;1.60;;
83552;SDS011;73510;50.866;5.420;2024-02-16T03:00:55;2.03;;;1.50;;
83552;SDS011;73510;50.866;5.420;2024-02-16T03:03:21;3.28;;;1.90;;
83552;SDS011;73510;50.866;5.420;2024-02-16T03:05:47;2.42;;;1.73;;
83552;SDS011;73510;50.866;5.420;2024-02-16T03:08:13;2.22;;;1.63;;
83552;SDS011;73510;50.866;5.420;2024-02-16T03:10:39;4.55;;;1.67;;
83552;SDS011;73510;50.866;5.420;2024-02-16T03:13:05;2.92;;;1.88;;
83552;SDS011;73510;50.866;5.420;2024-02-16T03:15:34;2.42;;;1.35;;
83552;SDS011;73510;50.866;5.420;2024-02-16T03:18:01;2.85;;;1.63;;
83552;SDS011;73510;50.866;5.420;2024-02-16T03:20:27;3.22;;;1.52;;
83552;SDS011;73510;50.866;5.420;2024-02-16T03:22:55;1.50;;;1.08;;
83552;SDS011;73510;50.866;5.420;2024-02-16T03:25:21;2.63;;;1.52;;
83552;SDS011;73510;50.866;5.420;2024-02-16T03:27:46;2.92;;;2.05;;
83552;SDS011;73510;50.866;5.420;2024-02-16T03:30:12;2.70;;;1.73;;
83552;SDS011;73510;50.866;5.420;2024-02-16T03:32:38;3.53;;;2.00;;
83552;SDS011;73510;50.866;5.420;2024-02-16T03:35:04;3.10;;;1.63;;
83552;SDS011;73510;50.866;5.420;2024-02-16T03:37:30;3.83;;;2.03;;
83552;SDS011;73510;50.866;5.420;2024-02-16T03:39:56;4.05;;;1.85;;
83552;SDS011;73510;50.866;5.420;2024-02-16T03:42:22;2.78;;;1.70;;
83552;SDS011;73510;50.866;5.420;2024-02-16T03:44:48;3.95;;;1.80;;
83552;SDS011;73510;50.866;5.420;2024-02-16T03:47:13;3.45;;;1.90;;
83552;SDS011;73510;50.866;5.420;2024-02-16T03:49:39;4.78;;;2.10;;
83552;SDS011;73510;50.866;5.420;2024-02-16T03:52:05;2.97;;;1.75;;
83552;SDS011;73510;50.866;5.420;2024-02-16T03:54:31;6.13;;;1.92;;
83552;SDS011;73510;50.866;5.420;2024-02-16T03:56:57;5.63;;;1.55;;
83552;SDS011;73510;50.866;5.420;2024-02-16T03:59:23;3.42;;;1.92;;
83552;SDS011;73510;50.866;5.420;2024-02-16T04:01:49;2.55;;;1.70;;
83552;SDS011;73510;50.866;5.420;2024-02-16T04:04:15;3.50;;;1.83;;
83552;SDS011;73510;50.866;5.420;2024-02-16T04:06:41;2.85;;;2.05;;
83552;SDS011;73510;50.866;5.420;2024-02-16T04:09:07;3.22;;;1.95;;
83552;SDS011;73510;50.866;5.420;2024-02-16T04:11:33;4.15;;;2.00;;
83552;SDS011;73510;50.866;5.420;2024-02-16T04:13:59;3.50;;;1.60;;
83552;SDS011;73510;50.866;5.420;2024-02-16T04:16:25;3.55;;;2.08;;
83552;SDS011;73510;50.866;5.420;2024-02-16T04:18:51;3.83;;;1.90;;
83552;SDS011;73510;50.866;5.420;2024-02-16T04:21:17;2.78;;;1.92;;
83552;SDS011;73510;50.866;5.420;2024-02-16T04:23:43;2.95;;;1.80;;
83552;SDS011;73510;50.866;5.420;2024-02-16T04:26:09;2.03;;;1.65;;
83552;SDS011;73510;50.866;5.420;2024-02-16T04:28:35;3.10;;;1.65;;
83552;SDS011;73510;50.866;5.420;2024-02-16T04:31:01;4.28;;;1.80;;
83552;SDS011;73510;50.866;5.420;2024-02-16T04:33:27;3.38;;;1.67;;
83552;SDS011;73510;50.866;5.420;2024-02-16T04:35:52;4.32;;;2.10;;
83552;SDS011;73510;50.866;5.420;2024-02-16T04:38:18;3.42;;;1.85;;
83552;SDS011;73510;50.866;5.420;2024-02-16T04:40:44;5.22;;;1.88;;
83552;SDS011;73510;50.866;5.420;2024-02-16T04:43:10;3.20;;;1.75;;
83552;SDS011;73510;50.866;5.420;2024-02-16T04:45:36;4.18;;;1.90;;
83552;SDS011;73510;50.866;5.420;2024-02-16T04:48:02;4.38;;;1.40;;
83552;SDS011;73510;50.866;5.420;2024-02-16T04:50:32;4.45;;;1.98;;
83552;SDS011;73510;50.866;5.420;2024-02-16T04:52:58;4.35;;;1.80;;
83552;SDS011;73510;50.866;5.420;2024-02-16T04:55:24;5.25;;;1.95;;
83552;SDS011;73510;50.866;5.420;2024-02-16T04:57:50;4.40;;;1.73;;
83552;SDS011;73510;50.866;5.420;2024-02-16T05:00:16;3.72;;;2.08;;
83552;SDS011;73510;50.866;5.420;2024-02-16T05:02:42;2.35;;;1.40;;
83552;SDS011;73510;50.866;5.420;2024-02-16T05:05:08;4.57;;;2.15;;
83552;SDS011;73510;50.866;5.420;2024-02-16T05:07:34;3.25;;;1.77;;
83552;SDS011;73510;50.866;5.420;2024-02-16T05:10:02;4.28;;;2.10;;
83552;SDS011;73510;50.866;5.420;2024-02-16T05:12:28;3.10;;;1.83;;
83552;SDS011;73510;50.866;5.420;2024-02-16T05:14:54;2.58;;;1.73;;
83552;SDS011;73510;50.866;5.420;2024-02-16T05:17:21;3.10;;;1.70;;
83552;SDS011;73510;50.866;5.420;2024-02-16T05:19:50;3.03;;;1.70;;
83552;SDS011;73510;50.866;5.420;2024-02-16T05:22:16;2.80;;;1.75;;
83552;SDS011;73510;50.866;5.420;2024-02-16T05:24:46;4.90;;;1.65;;
83552;SDS011;73510;50.866;5.420;2024-02-16T05:27:13;3.28;;;1.77;;
83552;SDS011;73510;50.866;5.420;2024-02-16T05:29:39;3.10;;;1.65;;
83552;SDS011;73510;50.866;5.420;2024-02-16T05:32:05;4.22;;;1.70;;
83552;SDS011;73510;50.866;5.420;2024-02-16T05:34:31;3.03;;;1.80;;
83552;SDS011;73510;50.866;5.420;2024-02-16T05:37:03;4.47;;;1.92;;
83552;SDS011;73510;50.866;5.420;2024-02-16T05:39:31;3.10;;;1.92;;
83552;SDS011;73510;50.866;5.420;2024-02-16T05:42:19;2.00;;;1.20;;
83552;SDS011;73510;50.866;5.420;2024-02-16T05:44:47;4.75;;;2.05;;
83552;SDS011;73510;50.866;5.420;2024-02-16T05:47:13;4.07;;;1.83;;
83552;SDS011;73510;50.866;5.420;2024-02-16T05:49:42;7.63;;;2.88;;
83552;SDS011;73510;50.866;5.420;2024-02-16T05:52:07;6.28;;;2.13;;
83552;SDS011;73510;50.866;5.420;2024-02-16T05:54:42;3.45;;;1.92;;
83552;SDS011;73510;50.866;5.420;2024-02-16T05:57:09;4.75;;;1.80;;
83552;SDS011;73510;50.866;5.420;2024-02-16T05:59:35;2.63;;;1.35;;
83552;SDS011;73510;50.866;5.420;2024-02-16T06:02:01;3.40;;;1.80;;
83552;SDS011;73510;50.866;5.420;2024-02-16T06:04:27;4.82;;;2.22;;
83552;SDS011;73510;50.866;5.420;2024-02-16T06:06:52;5.30;;;1.80;;
83552;SDS011;73510;50.866;5.420;2024-02-16T06:09:19;3.65;;;2.00;;
83552;SDS011;73510;50.866;5.420;2024-02-16T06:11:44;4.07;;;1.88;;
83552;SDS011;73510;50.866;5.420;2024-02-16T06:14:10;3.63;;;1.73;;
83552;SDS011;73510;50.866;5.420;2024-02-16T06:16:36;4.47;;;1.63;;
83552;SDS011;73510;50.866;5.420;2024-02-16T06:19:01;3.10;;;2.05;;
83552;SDS011;73510;50.866;5.420;2024-02-16T06:21:27;3.03;;;2.03;;
83552;SDS011;73510;50.866;5.420;2024-02-16T06:23:53;7.35;;;2.10;;
83552;SDS011;73510;50.866;5.420;2024-02-16T06:26:19;4.28;;;1.90;;
83552;SDS011;73510;50.866;5.420;2024-02-16T06:28:45;3.75;;;2.00;;
83552;SDS011;73510;50.866;5.420;2024-02-16T06:31:12;3.53;;;1.98;;
83552;SDS011;73510;50.866;5.420;2024-02-16T06:33:39;4.57;;;1.70;;
83552;SDS011;73510;50.866;5.420;2024-02-16T06:36:05;6.82;;;2.42;;
83552;SDS011;73510;50.866;5.420;2024-02-16T06:38:32;3.08;;;1.73;;
83552;SDS011;73510;50.866;5.420;2024-02-16T06:40:57;4.97;;;1.98;;
83552;SDS011;73510;50.866;5.420;2024-02-16T06:43:23;4.45;;;2.20;;
83552;SDS011;73510;50.866;5.420;2024-02-16T06:45:49;5.45;;;2.33;;
83552;SDS011;73510;50.866;5.420;2024-02-16T06:48:14;5.82;;;2.13;;
83552;SDS011;73510;50.866;5.420;2024-02-16T06:50:40;4.80;;;2.38;;
83552;SDS011;73510;50.866;5.420;2024-02-16T06:53:06;3.50;;;1.73;;
83552;SDS011;73510;50.866;5.420;2024-02-16T06:55:31;3.60;;;2.13;;
83552;SDS011;73510;50.866;5.420;2024-02-16T06:57:57;4.10;;;2.28;;
83552;SDS011;73510;50.866;5.420;2024-02-16T07:00:23;3.65;;;1.85;;
83552;SDS011;73510;50.866;5.420;2024-02-16T07:02:49;2.85;;;1.80;;
83552;SDS011;73510;50.866;5.420;2024-02-16T07:05:14;4.00;;;2.20;;
83552;SDS011;73510;50.866;5.420;2024-02-16T07:07:42;7.90;;;2.35;;
83552;SDS011;73510;50.866;5.420;2024-02-16T07:10:08;6.45;;;2.40;;
83552;SDS011;73510;50.866;5.420;2024-02-16T07:12:38;3.47;;;2.00;;
83552;SDS011;73510;50.866;5.420;2024-02-16T07:15:06;3.78;;;1.85;;
83552;SDS011;73510;50.866;5.420;2024-02-16T07:17:33;5.53;;;2.30;;
83552;SDS011;73510;50.866;5.420;2024-02-16T07:20:00;3.40;;;1.83;;
83552;SDS011;73510;50.866;5.420;2024-02-16T07:22:28;5.35;;;2.88;;
83552;SDS011;73510;50.866;5.420;2024-02-16T07:24:54;5.00;;;2.00;;
83552;SDS011;73510;50.866;5.420;2024-02-16T07:27:20;2.95;;;2.22;;
83552;SDS011;73510;50.866;5.420;2024-02-16T07:29:46;5.15;;;2.25;;
83552;SDS011;73510;50.866;5.420;2024-02-16T07:32:12;5.07;;;2.00;;
83552;SDS011;73510;50.866;5.420;2024-02-16T07:34:38;5.65;;;2.05;;
83552;SDS011;73510;50.866;5.420;2024-02-16T07:37:04;3.20;;;1.95;;
83552;SDS011;73510;50.866;5.420;2024-02-16T07:39:30;4.60;;;2.08;;
83552;SDS011;73510;50.866;5.420;2024-02-16T07:41:56;5.10;;;1.73;;
83552;SDS011;73510;50.866;5.420;2024-02-16T07:44:21;3.13;;;1.90;;
83552;SDS011;73510;50.866;5.420;2024-02-16T07:46:47;3.97;;;2.22;;
83552;SDS011;73510;50.866;5.420;2024-02-16T07:49:14;3.47;;;1.92;;
83552;SDS011;73510;50.866;5.420;2024-02-16T07:51:40;4.90;;;2.17;;
83552;SDS011;73510;50.866;5.420;2024-02-16T07:54:06;5.30;;;2.15;;
83552;SDS011;73510;50.866;5.420;2024-02-16T07:56:33;3.88;;;2.42;;
83552;SDS011;73510;50.866;5.420;2024-02-16T07:58:59;4.95;;;2.30;;
83552;SDS011;73510;50.866;5.420;2024-02-16T08:01:25;4.07;;;2.22;;
83552;SDS011;73510;50.866;5.420;2024-02-16T08:03:51;4.90;;;2.35;;
83552;SDS011;73510;50.866;5.420;2024-02-16T08:06:18;3.92;;;2.58;;
83552;SDS011;73510;50.866;5.420;2024-02-16T08:08:46;3.35;;;2.20;;
83552;SDS011;73510;50.866;5.420;2024-02-16T08:11:12;5.53;;;2.30;;
83552;SDS011;73510;50.866;5.420;2024-02-16T08:13:38;3.35;;;1.90;;
83552;SDS011;73510;50.866;5.420;2024-02-16T08:16:03;6.05;;;2.35;;
83552;SDS011;73510;50.866;5.420;2024-02-16T08:18:32;5.72;;;2.83;;
83552;SDS011;73510;50.866;5.420;2024-02-16T08:20:58;5.20;;;2.20;;
83552;SDS011;73510;50.866;5.420;2024-02-16T08:23:24;4.60;;;2.58;;
83552;SDS011;73510;50.866;5.420;2024-02-16T08:25:50;6.63;;;2.30;;
83552;SDS011;73510;50.866;5.420;2024-02-16T08:28:15;6.18;;;2.47;;
83552;SDS011;73510;50.866;5.420;2024-02-16T08:30:41;4.93;;;2.85;;
83552;SDS011;73510;50.866;5.420;2024-02-16T08:33:09;6.50;;;2.83;;
83552;SDS011;73510;50.866;5.420;2024-02-16T08:35:35;4.78;;;2.28;;
83552;SDS011;73510;50.866;5.420;2024-02-16T08:38:01;5.32;;;2.40;;
83552;SDS011;73510;50.866;5.420;2024-02-16T08:40:27;4.60;;;2.00;;
83552;SDS011;73510;50.866;5.420;2024-02-16T08:42:53;4.82;;;2.72;;
83552;SDS011;73510;50.866;5.420;2024-02-16T08:45:19;5.60;;;2.20;;
83552;SDS011;73510;50.866;5.420;2024-02-16T08:47:45;4.78;;;2.35;;
83552;SDS011;73510;50.866;5.420;2024-02-16T08:50:10;4.18;;;2.15;;
83552;SDS011;73510;50.866;5.420;2024-02-16T08:52:37;5.00;;;2.15;;
83552;SDS011;73510;50.866;5.420;2024-02-16T08:55:02;4.18;;;2.08;;
83552;SDS011;73510;50.866;5.420;2024-02-16T08:57:28;6.78;;;2.15;;
83552;SDS011;73510;50.866;5.420;2024-02-16T08:59:54;5.18;;;2.30;;
83552;SDS011;73510;50.866;5.420;2024-02-16T09:02:21;4.47;;;1.88;;
83552;SDS011;73510;50.866;5.420;2024-02-16T09:04:47;4.97;;;2.60;;
83552;SDS011;73510;50.866;5.420;2024-02-16T09:07:13;3.20;;;2.20;;
83552;SDS011;73510;50.866;5.420;2024-02-16T09:09:39;6.20;;;1.80;;
83552;SDS011;73510;50.866;5.420;2024-02-16T09:12:05;3.90;;;1.98;;
83552;SDS011;73510;50.866;5.420;2024-02-16T09:14:31;3.88;;;2.65;;
83552;SDS011;73510;50.866;5.420;2024-02-16T09:16:57;6.47;;;2.78;;
83552;SDS011;73510;50.866;5.420;2024-02-16T09:19:23;6.18;;;2.60;;
83552;SDS011;73510;50.866;5.420;2024-02-16T09:21:48;7.07;;;2.67;;
83552;SDS011;73510;50.866;5.420;2024-02-16T09:24:16;5.05;;;3.13;;
83552;SDS011;73510;50.866;5.420;2024-02-16T09:26:46;4.53;;;2.45;;
83552;SDS011;73510;50.866;5.420;2024-02-16T09:29:12;4.80;;;2.70;;
83552;SDS011;73510;50.866;5.420;2024-02-16T09:31:39;4.00;;;2.05;;
83552;SDS011;73510;50.866;5.420;2024-02-16T09:34:10;6.07;;;2.75;;
83552;SDS011;73510;50.866;5.420;2024-02-16T09:36:36;4.47;;;2.30;;
83552;SDS011;73510;50.866;5.420;2024-02-16T09:39:02;4.50;;;3.30;;
83552;SDS011;73510;50.866;5.420;2024-02-16T09:41:29;5.25;;;2.60;;
83552;SDS011;73510;50.866;5.420;2024-02-16T09:43:59;5.45;;;2.35;;
83552;SDS011;73510;50.866;5.420;2024-02-16T09:46:25;7.57;;;2.72;;
83552;SDS011;73510;50.866;5.420;2024-02-16T09:48:53;6.35;;;2.63;;
83552;SDS011;73510;50.866;5.420;2024-02-16T09:51:20;7.50;;;2.80;;
83552;SDS011;73510;50.866;5.420;2024-02-16T09:53:49;4.88;;;2.50;;
83552;SDS011;73510;50.866;5.420;2024-02-16T09:56:20;6.22;;;2.50;;
83552;SDS011;73510;50.866;5.420;2024-02-16T09:58:46;5.32;;;2.28;;
83552;SDS011;73510;50.866;5.420;2024-02-16T10:01:19;7.43;;;3.17;;
83552;SDS011;73510;50.866;5.420;2024-02-16T10:03:45;7.38;;;2.80;;
83552;SDS011;73510;50.866;5.420;2024-02-16T10:06:11;7.15;;;3.00;;
83552;SDS011;73510;50.866;5.420;2024-02-16T10:11:32;7.50;;;3.10;;
83552;SDS011;73510;50.866;5.420;2024-02-16T10:14:00;5.80;;;2.75;;
83552;SDS011;73510;50.866;5.420;2024-02-16T10:16:27;4.82;;;3.05;;
83552;SDS011;73510;50.866;5.420;2024-02-16T10:19:07;5.97;;;2.60;;
83552;SDS011;73510;50.866;5.420;2024-02-16T10:21:35;4.68;;;2.97;;
83552;SDS011;73510;50.866;5.420;2024-02-16T10:24:02;4.38;;;3.22;;
83552;SDS011;73510;50.866;5.420;2024-02-16T10:26:32;7.68;;;3.35;;
83552;SDS011;73510;50.866;5.420;2024-02-16T10:29:05;5.20;;;3.40;;
83552;SDS011;73510;50.866;5.420;2024-02-16T10:31:33;6.47;;;3.33;;
83552;SDS011;73510;50.866;5.420;2024-02-16T10:34:08;5.20;;;3.30;;
83552;SDS011;73510;50.866;5.420;2024-02-16T10:36:38;6.80;;;3.45;;
83552;SDS011;73510;50.866;5.420;2024-02-16T10:39:05;8.60;;;4.10;;
83552;SDS011;73510;50.866;5.420;2024-02-16T10:41:37;5.78;;;2.88;;
83552;SDS011;73510;50.866;5.420;2024-02-16T10:44:03;5.78;;;2.80;;
83552;SDS011;73510;50.866;5.420;2024-02-16T10:46:30;5.15;;;2.92;;
83552;SDS011;73510;50.866;5.420;2024-02-16T10:48:57;6.63;;;3.53;;
83552;SDS011;73510;50.866;5.420;2024-02-16T10:51:23;5.88;;;3.58;;
83552;SDS011;73510;50.866;5.420;2024-02-16T10:53:59;8.48;;;3.20;;
83552;SDS011;73510;50.866;5.420;2024-02-16T10:56:26;5.82;;;3.30;;
83552;SDS011;73510;50.866;5.420;2024-02-16T10:58:53;6.68;;;3.10;;
83552;SDS011;73510;50.866;5.420;2024-02-16T11:01:19;8.25;;;4.35;;
83552;SDS011;73510;50.866;5.420;2024-02-16T11:03:45;7.43;;;3.72;;
83552;SDS011;73510;50.866;5.420;2024-02-16T11:06:14;6.30;;;3.40;;
83552;SDS011;73510;50.866;5.420;2024-02-16T11:08:41;7.65;;;3.70;;
83552;SDS011;73510;50.866;5.420;2024-02-16T11:11:07;9.38;;;3.65;;
83552;SDS011;73510;50.866;5.420;2024-02-16T11:13:36;11.48;;;4.15;;
83552;SDS011;73510;50.866;5.420;2024-02-16T11:16:06;5.20;;;3.90;;
83552;SDS011;73510;50.866;5.420;2024-02-16T11:18:40;8.02;;;3.95;;
83552;SDS011;73510;50.866;5.420;2024-02-16T11:21:11;8.90;;;3.95;;
83552;SDS011;73510;50.866;5.420;2024-02-16T11:23:37;6.93;;;3.92;;
83552;SDS011;73510;50.866;5.420;2024-02-16T11:26:06;8.63;;;3.33;;
83552;SDS011;73510;50.866;5.420;2024-02-16T11:28:38;6.32;;;4.05;;
83552;SDS011;73510;50.866;5.420;2024-02-16T11:31:07;8.27;;;4.47;;
83552;SDS011;73510;50.866;5.420;2024-02-16T11:33:34;7.32;;;4.22;;
83552;SDS011;73510;50.866;5.420;2024-02-16T11:36:00;6.18;;;4.38;;
83552;SDS011;73510;50.866;5.420;2024-02-16T11:38:30;10.48;;;4.55;;
83552;SDS011;73510;50.866;5.420;2024-02-16T11:41:01;5.45;;;3.03;;
83552;SDS011;73510;50.866;5.420;2024-02-16T11:43:29;5.47;;;4.22;;
83552;SDS011;73510;50.866;5.420;2024-02-16T11:45:55;8.80;;;4.60;;
83552;SDS011;73510;50.866;5.420;2024-02-16T11:48:25;6.22;;;3.72;;
83552;SDS011;73510;50.866;5.420;2024-02-16T11:51:00;7.63;;;4.35;;
83552;SDS011;73510;50.866;5.420;2024-02-16T11:53:29;8.55;;;4.75;;
83552;SDS011;73510;50.866;5.420;2024-02-16T11:55:56;12.63;;;5.05;;
83552;SDS011;73510;50.866;5.420;2024-02-16T11:58:22;12.02;;;5.75;;
83552;SDS011;73510;50.866;5.420;2024-02-16T12:00:50;7.70;;;4.45;;
83552;SDS011;73510;50.866;5.420;2024-02-16T12:03:20;7.68;;;4.43;;
83552;SDS011;73510;50.866;5.420;2024-02-16T12:05:57;8.63;;;5.15;;
83552;SDS011;73510;50.866;5.420;2024-02-16T12:08:31;9.40;;;4.70;;
83552;SDS011;73510;50.866;5.420;2024-02-16T12:10:58;11.27;;;5.35;;
83552;SDS011;73510;50.866;5.420;2024-02-16T12:13:24;8.88;;;4.93;;
83552;SDS011;73510;50.866;5.420;2024-02-16T12:15:50;11.10;;;5.45;;
83552;SDS011;73510;50.866;5.420;2024-02-16T12:18:23;8.98;;;5.13;;
83552;SDS011;73510;50.866;5.420;2024-02-16T12:20:59;10.95;;;4.88;;
83552;SDS011;73510;50.866;5.420;2024-02-16T12:23:26;11.35;;;5.30;;
83552;SDS011;73510;50.866;5.420;2024-02-16T12:25:53;10.63;;;5.32;;
83552;SDS011;73510;50.866;5.420;2024-02-16T12:28:19;13.90;;;5.20;;
83552;SDS011;73510;50.866;5.420;2024-02-16T12:30:49;12.25;;;5.50;;
83552;SDS011;73510;50.866;5.420;2024-02-16T12:33:14;12.50;;;5.93;;
83552;SDS011;73510;50.866;5.420;2024-02-16T12:35:41;9.93;;;6.10;;
83552;SDS011;73510;50.866;5.420;2024-02-16T12:38:06;9.38;;;5.60;;
83552;SDS011;73510;50.866;5.420;2024-02-16T12:40:32;12.02;;;5.97;;
83552;SDS011;73510;50.866;5.420;2024-02-16T12:42:58;12.35;;;6.53;;
83552;SDS011;73510;50.866;5.420;2024-02-16T12:45:24;13.10;;;5.95;;
83552;SDS011;73510;50.866;5.420;2024-02-16T12:47:50;12.10;;;6.63;;
83552;SDS011;73510;50.866;5.420;2024-02-16T12:50:15;12.55;;;7.50;;
83552;SDS011;73510;50.866;5.420;2024-02-16T12:52:42;11.63;;;6.20;;
83552;SDS011;73510;50.866;5.420;2024-02-16T12:55:08;12.52;;;7.03;;
83552;SDS011;73510;50.866;5.420;2024-02-16T12:57:37;9.15;;;6.15;;
83552;SDS011;73510;50.866;5.420;2024-02-16T13:00:03;10.02;;;6.45;;
83552;SDS011;73510;50.866;5.420;2024-02-16T13:02:30;10.85;;;6.57;;
83552;SDS011;73510;50.866;5.420;2024-02-16T13:04:56;11.85;;;6.80;;
83552;SDS011;73510;50.866;5.420;2024-02-16T13:07:23;10.52;;;6.88;;
83552;SDS011;73510;50.866;5.420;2024-02-16T13:09:49;14.38;;;8.45;;
83552;SDS011;73510;50.866;5.420;2024-02-16T13:12:18;11.82;;;6.85;;
83552;SDS011;73510;50.866;5.420;2024-02-16T13:14:47;12.98;;;7.75;;
83552;SDS011;73510;50.866;5.420;2024-02-16T13:17:13;10.75;;;6.93;;
83552;SDS011;73510;50.866;5.420;2024-02-16T13:19:39;12.80;;;7.03;;
83552;SDS011;73510;50.866;5.420;2024-02-16T13:22:05;14.23;;;6.93;;
83552;SDS011;73510;50.866;5.420;2024-02-16T13:24:31;13.60;;;7.68;;
83552;SDS011;73510;50.866;5.420;2024-02-16T13:26:56;11.82;;;7.25;;
83552;SDS011;73510;50.866;5.420;2024-02-16T13:29:22;9.45;;;5.13;;
83552;SDS011;73510;50.866;5.420;2024-02-16T13:31:48;10.60;;;6.75;;
83552;SDS011;73510;50.866;5.420;2024-02-16T13:34:14;10.32;;;5.75;;
83552;SDS011;73510;50.866;5.420;2024-02-16T13:36:42;12.65;;;5.82;;
83552;SDS011;73510;50.866;5.420;2024-02-16T13:39:08;8.82;;;5.70;;
83552;SDS011;73510;50.866;5.420;2024-02-16T13:41:35;9.13;;;5.30;;
83552;SDS011;73510;50.866;5.420;2024-02-16T13:44:01;7.53;;;5.07;;
83552;SDS011;73510;50.866;5.420;2024-02-16T13:46:27;7.65;;;5.05;;
83552;SDS011;73510;50.866;5.420;2024-02-16T13:48:53;8.43;;;4.55;;
83552;SDS011;73510;50.866;5.420;2024-02-16T13:51:19;8.30;;;5.18;;
83552;SDS011;73510;50.866;5.420;2024-02-16T13:53:45;6.25;;;4.47;;
83552;SDS011;73510;50.866;5.420;2024-02-16T13:56:11;5.32;;;3.85;;
83552;SDS011;73510;50.866;5.420;2024-02-16T13:58:37;7.28;;;3.92;;
83552;SDS011;73510;50.866;5.420;2024-02-16T14:01:03;6.05;;;3.90;;
83552;SDS011;73510;50.866;5.420;2024-02-16T14:03:29;5.38;;;4.38;;
83552;SDS011;73510;50.866;5.420;2024-02-16T14:05:56;8.30;;;4.88;;
83552;SDS011;73510;50.866;5.420;2024-02-16T14:08:21;5.82;;;3.78;;
83552;SDS011;73510;50.866;5.420;2024-02-16T14:10:47;5.15;;;4.03;;
83552;SDS011;73510;50.866;5.420;2024-02-16T14:13:13;7.20;;;4.88;;
83552;SDS011;73510;50.866;5.420;2024-02-16T14:15:40;5.53;;;4.40;;
83552;SDS011;73510;50.866;5.420;2024-02-16T14:18:05;5.38;;;3.85;;
83552;SDS011;73510;50.866;5.420;2024-02-16T14:20:32;6.13;;;3.65;;
83552;SDS011;73510;50.866;5.420;2024-02-16T14:22:58;4.90;;;3.45;;
83552;SDS011;73510;50.866;5.420;2024-02-16T14:25:24;4.97;;;3.80;;
83552;SDS011;73510;50.866;5.420;2024-02-16T14:27:50;5.00;;;3.60;;
83552;SDS011;73510;50.866;5.420;2024-02-16T14:30:16;4.65;;;3.63;;
83552;SDS011;73510;50.866;5.420;2024-02-16T14:32:42;4.18;;;2.88;;
83552;SDS011;73510;50.866;5.420;2024-02-16T14:35:08;4.72;;;3.38;;
83552;SDS011;73510;50.866;5.420;2024-02-16T14:37:34;5.28;;;4.10;;
83552;SDS011;73510;50.866;5.420;2024-02-16T14:40:01;4.88;;;3.70;;
83552;SDS011;73510;50.866;5.420;2024-02-16T14:42:28;4.63;;;3.67;;
83552;SDS011;73510;50.866;5.420;2024-02-16T14:44:54;5.85;;;3.58;;